Time;durP1;ratioP1;P1;durP2;ratioP2;P2;SDS_P1;SDS_P2;PMS_P1;PMS_P2;Temp;Humidity;BMP_temperature;BMP_pressure;BME280_temperature;BME280_humidity;BME280_pressure;Samples;Min_cycle;Max_cycle;Signal;HPM_P1;HPM_P2
2021/04/09 00:01:49;;;;;;;8.30;3.88;;;1.10;99.90;;;;;;5041959;28;20098;-78
2021/04/09 00:04:15;;;;;;;7.43;4.20;;;1.10;99.90;;;;;;5050797;28;20824;-77
2021/04/09 00:06:41;;;;;;;6.65;4.20;;;1.10;99.90;;;;;;5041062;28;20098;-77
2021/04/09 00:09:07;;;;;;;5.65;4.22;;;1.10;99.90;;;;;;5042258;28;20077;-75
2021/04/09 00:11:33;;;;;;;5.97;4.30;;;1.20;99.90;;;;;;5032406;28;20109;-77
2021/04/09 00:13:59;;;;;;;7.68;5.10;;;1.10;99.90;;;;;;5036849;28;20085;-76
2021/04/09 00:16:24;;;;;;;8.40;4.40;;;1.10;99.90;;;;;;5032190;28;20536;-77
2021/04/09 00:18:50;;;;;;;6.45;4.22;;;1.10;99.90;;;;;;5035663;28;20109;-77
2021/04/09 00:21:15;;;;;;;5.53;4.40;;;1.10;99.90;;;;;;5034307;28;20106;-77
2021/04/09 00:23:41;;;;;;;5.57;3.78;;;1.00;99.90;;;;;;5032949;28;20077;-77
2021/04/09 00:26:06;;;;;;;7.82;5.18;;;1.10;99.90;;;;;;5033426;28;20990;-77
2021/04/09 00:28:32;;;;;;;10.15;4.53;;;1.00;99.90;;;;;;5042388;28;20447;-77
2021/04/09 00:30:58;;;;;;;7.60;4.75;;;1.00;99.90;;;;;;5038243;28;20471;-77
2021/04/09 00:33:23;;;;;;;7.28;4.28;;;1.10;99.90;;;;;;5030752;28;20087;-77
2021/04/09 00:35:49;;;;;;;5.90;4.43;;;1.10;99.90;;;;;;5062421;28;20084;-77
2021/04/09 00:38:15;;;;;;;5.28;4.47;;;1.00;99.90;;;;;;5037202;28;20086;-77
2021/04/09 00:40:41;;;;;;;6.00;4.57;;;1.00;99.90;;;;;;5015155;28;20100;-77
2021/04/09 00:43:07;;;;;;;8.50;4.80;;;1.00;99.90;;;;;;5032016;28;20125;-76
2021/04/09 00:45:37;;;;;;;7.68;4.90;;;1.00;99.90;;;;;;5041463;28;20160;-77
2021/04/09 00:48:06;;;;;;;8.90;4.72;;;1.10;99.90;;;;;;5023861;28;20091;-77
2021/04/09 00:50:33;;;;;;;6.47;4.20;;;1.00;99.90;;;;;;5031956;28;20151;-77
2021/04/09 00:53:00;;;;;;;8.60;4.85;;;1.00;99.90;;;;;;5028107;28;20081;-77
2021/04/09 00:55:27;;;;;;;5.72;4.95;;;1.10;99.90;;;;;;5031166;28;20143;-77
2021/04/09 00:57:55;;;;;;;6.07;4.20;;;1.00;99.90;;;;;;5035780;28;20097;-77
2021/04/09 01:00:21;;;;;;;5.40;4.45;;;1.10;99.90;;;;;;5015301;28;20082;-77
2021/04/09 01:02:47;;;;;;;5.38;3.90;;;1.10;99.90;;;;;;5032257;28;20101;-77
2021/04/09 01:05:14;;;;;;;6.90;4.20;;;1.10;99.90;;;;;;5047768;28;20077;-77
2021/04/09 01:07:40;;;;;;;8.90;4.38;;;1.10;99.90;;;;;;5045939;28;20081;-77
2021/04/09 01:10:08;;;;;;;6.43;4.70;;;1.20;99.90;;;;;;5044443;28;20086;-77
2021/04/09 01:12:34;;;;;;;7.95;4.75;;;1.20;99.90;;;;;;5045403;28;20081;-76
2021/04/09 01:15:00;;;;;;;6.57;4.40;;;1.10;99.90;;;;;;5054069;28;20087;-77
2021/04/09 01:17:29;;;;;;;4.78;4.18;;;1.30;99.90;;;;;;5048167;28;20547;-77
2021/04/09 01:20:49;;;;;;;6.78;4.38;;;1.30;99.90;;;;;;5020062;28;20470;-75
2021/04/09 01:23:42;;;;;;;5.45;3.78;;;1.40;99.90;;;;;;4989935;28;20103;-76
2021/04/09 01:26:38;;;;;;;8.35;4.53;;;1.30;99.90;;;;;;5013811;28;20132;-76
2021/04/09 01:29:25;;;;;;;5.93;3.85;;;1.30;99.90;;;;;;5030989;28;20551;-75
2021/04/09 01:32:00;;;;;;;4.60;3.38;;;1.30;99.90;;;;;;5039280;28;20094;-76
2021/04/09 01:34:31;;;;;;;9.10;4.32;;;1.40;99.90;;;;;;5037269;28;20085;-75
2021/04/09 01:37:07;;;;;;;4.07;3.45;;;1.40;99.90;;;;;;5032463;28;20073;-76
2021/04/09 01:39:39;;;;;;;5.93;4.90;;;1.40;99.90;;;;;;5043736;28;20077;-76
2021/04/09 01:42:10;;;;;;;7.90;4.45;;;1.30;99.90;;;;;;5018121;28;20722;-76
2021/04/09 01:44:41;;;;;;;8.00;4.15;;;1.30;99.90;;;;;;5037831;28;20077;-75
2021/04/09 01:47:08;;;;;;;5.75;3.90;;;1.30;99.90;;;;;;5038905;28;20112;-76
2021/04/09 01:49:36;;;;;;;4.07;3.20;;;1.30;99.90;;;;;;5032279;28;20096;-75
2021/04/09 01:52:02;;;;;;;4.97;3.90;;;1.30;99.90;;;;;;5036307;28;20141;-76
2021/04/09 01:54:30;;;;;;;5.10;3.28;;;1.30;99.90;;;;;;5029774;28;20343;-76
2021/04/09 01:56:57;;;;;;;13.65;5.00;;;1.30;99.90;;;;;;5048505;28;20089;-76
2021/04/09 01:59:24;;;;;;;5.80;4.43;;;1.30;99.90;;;;;;5042683;28;21105;-75
2021/04/09 02:01:51;;;;;;;7.25;3.83;;;1.30;99.90;;;;;;5047212;28;20180;-76
2021/04/09 02:04:18;;;;;;;6.10;3.90;;;1.40;99.90;;;;;;5044057;28;20084;-76
2021/04/09 02:06:45;;;;;;;10.13;3.97;;;1.50;99.90;;;;;;5049659;28;20073;-76
2021/04/09 02:09:12;;;;;;;4.97;4.05;;;1.50;99.90;;;;;;5039231;28;20074;-76
2021/04/09 02:11:40;;;;;;;6.13;3.67;;;1.50;99.90;;;;;;5041665;28;20151;-76
2021/04/09 02:14:10;;;;;;;7.32;3.88;;;1.50;99.90;;;;;;5032863;28;20109;-76
2021/04/09 02:16:36;;;;;;;5.05;3.85;;;1.50;99.90;;;;;;5039519;28;20086;-76
2021/04/09 02:19:04;;;;;;;9.38;4.03;;;1.50;99.90;;;;;;5041820;28;20144;-76
2021/04/09 02:21:35;;;;;;;5.68;3.30;;;1.50;99.90;;;;;;5037189;28;20156;-75
2021/04/09 02:24:02;;;;;;;5.97;4.10;;;1.60;99.90;;;;;;5042620;28;20089;-75
2021/04/09 02:26:28;;;;;;;4.25;3.40;;;1.50;99.90;;;;;;5026868;28;20536;-76
2021/04/09 02:28:54;;;;;;;5.93;4.03;;;1.50;99.90;;;;;;5034396;28;20088;-76
2021/04/09 02:31:22;;;;;;;4.53;3.60;;;1.50;99.90;;;;;;5031201;28;20097;-76
2021/04/09 02:33:48;;;;;;;4.45;3.00;;;1.50;99.90;;;;;;5032113;28;20551;-75
2021/04/09 02:36:17;;;;;;;4.53;3.40;;;1.40;99.90;;;;;;5015347;28;20074;-76
2021/04/09 02:38:53;;;;;;;5.65;3.75;;;1.40;99.90;;;;;;5053328;28;20081;-77
2021/04/09 02:41:21;;;;;;;6.30;3.78;;;1.40;99.90;;;;;;5041846;28;20093;-76
2021/04/09 02:43:47;;;;;;;4.97;3.45;;;1.30;99.90;;;;;;5049876;28;20081;-76
2021/04/09 02:46:20;;;;;;;3.78;2.95;;;1.30;99.90;;;;;;5029159;28;20077;-76
2021/04/09 02:48:58;;;;;;;7.68;3.92;;;1.30;99.90;;;;;;5037997;28;20135;-75
2021/04/09 02:51:25;;;;;;;4.90;3.28;;;1.20;99.90;;;;;;5038306;28;20128;-76
2021/04/09 02:53:53;;;;;;;5.45;3.30;;;1.20;99.90;;;;;;5041840;28;20446;-76
2021/04/09 02:56:21;;;;;;;5.25;3.15;;;1.10;99.90;;;;;;5032946;28;20078;-76
2021/04/09 02:58:47;;;;;;;5.15;3.53;;;1.10;99.90;;;;;;5045369;28;20085;-76
2021/04/09 03:01:13;;;;;;;3.60;3.22;;;1.20;99.90;;;;;;5044329;28;20085;-76
2021/04/09 03:03:40;;;;;;;6.22;3.55;;;1.10;99.90;;;;;;5052425;28;20074;-76
2021/04/09 03:06:06;;;;;;;5.88;3.05;;;1.10;99.90;;;;;;5039039;28;20682;-76
2021/04/09 03:08:32;;;;;;;4.78;3.03;;;1.20;99.90;;;;;;5040623;28;20078;-76
2021/04/09 03:11:01;;;;;;;5.53;2.97;;;1.10;99.90;;;;;;5044741;28;20098;-75
2021/04/09 03:13:27;;;;;;;5.28;3.58;;;1.10;99.90;;;;;;5033683;28;20132;-76
2021/04/09 03:16:01;;;;;;;4.00;3.28;;;1.10;99.90;;;;;;5031495;28;20085;-76
2021/04/09 03:18:29;;;;;;;6.13;3.28;;;1.10;99.90;;;;;;5035703;28;20532;-76
2021/04/09 03:20:55;;;;;;;5.88;3.00;;;1.00;99.90;;;;;;5043472;28;20183;-77
2021/04/09 03:23:21;;;;;;;4.68;3.47;;;1.00;99.90;;;;;;5029522;28;20563;-76
2021/04/09 03:25:47;;;;;;;6.45;3.60;;;1.20;99.90;;;;;;5031976;28;20536;-76
2021/04/09 03:28:13;;;;;;;5.15;3.30;;;1.20;99.90;;;;;;5030181;28;20077;-76
2021/04/09 03:30:39;;;;;;;4.55;3.00;;;1.20;99.90;;;;;;5041948;28;20089;-76
2021/04/09 03:33:05;;;;;;;4.35;3.38;;;1.30;99.90;;;;;;5028834;28;20089;-76
2021/04/09 03:35:31;;;;;;;5.35;3.03;;;1.30;99.90;;;;;;5038206;28;20084;-76
2021/04/09 03:37:56;;;;;;;6.10;2.95;;;1.30;99.90;;;;;;5032482;28;20078;-76
2021/04/09 03:40:22;;;;;;;4.15;3.08;;;1.30;99.90;;;;;;5029074;28;20074;-76
2021/04/09 03:42:48;;;;;;;3.72;2.78;;;1.40;99.90;;;;;;5027974;28;20500;-76
2021/04/09 03:45:14;;;;;;;4.88;2.78;;;1.30;99.90;;;;;;5041083;28;20099;-76
2021/04/09 03:47:40;;;;;;;4.13;2.78;;;1.40;99.90;;;;;;5039273;28;20091;-75
2021/04/09 03:50:07;;;;;;;4.55;3.42;;;1.50;99.90;;;;;;5030747;28;20482;-76
2021/04/09 03:52:33;;;;;;;4.72;2.63;;;1.40;99.90;;;;;;5031563;28;20082;-76
2021/04/09 03:54:58;;;;;;;6.00;3.30;;;1.40;99.90;;;;;;5033447;28;20140;-76
2021/04/09 03:57:24;;;;;;;3.90;2.72;;;1.30;99.90;;;;;;5026880;28;20116;-76
2021/04/09 03:59:50;;;;;;;3.70;2.88;;;1.30;99.90;;;;;;5038181;28;20120;-76
2021/04/09 04:02:15;;;;;;;3.85;2.97;;;1.20;99.90;;;;;;5031357;28;20106;-76
2021/04/09 04:04:41;;;;;;;6.07;2.63;;;1.30;99.90;;;;;;5033035;28;20463;-75
2021/04/09 04:07:06;;;;;;;3.65;2.70;;;1.20;99.90;;;;;;5023930;28;20101;-76
2021/04/09 04:09:32;;;;;;;3.97;2.83;;;1.20;99.90;;;;;;5037133;28;20131;-76
2021/04/09 04:11:59;;;;;;;3.83;3.30;;;1.20;99.90;;;;;;5036230;28;20094;-76
2021/04/09 04:14:24;;;;;;;4.30;2.75;;;1.20;99.90;;;;;;5032950;28;20077;-76
2021/04/09 04:16:50;;;;;;;3.80;2.92;;;1.30;99.90;;;;;;5045482;28;20447;-76
2021/04/09 04:19:17;;;;;;;5.43;3.10;;;1.20;99.90;;;;;;5030349;28;20089;-76
2021/04/09 04:21:43;;;;;;;4.40;3.15;;;1.20;99.90;;;;;;5033933;28;20111;-76
2021/04/09 04:24:09;;;;;;;10.90;2.95;;;1.20;99.90;;;;;;5052245;28;20065;-77
2021/04/09 04:26:34;;;;;;;5.82;2.75;;;1.20;99.90;;;;;;5049742;28;20516;-77
2021/04/09 04:29:00;;;;;;;6.18;2.90;;;1.30;99.90;;;;;;5034186;28;20524;-77
2021/04/09 04:31:25;;;;;;;3.47;2.95;;;1.30;99.90;;;;;;5035304;28;20143;-77
2021/04/09 04:33:51;;;;;;;3.40;2.33;;;1.40;99.90;;;;;;5062360;28;20081;-77
2021/04/09 04:36:17;;;;;;;3.72;2.20;;;1.30;99.90;;;;;;5047717;28;20074;-77
2021/04/09 04:38:42;;;;;;;4.63;2.60;;;1.40;99.90;;;;;;5038584;28;20116;-77
2021/04/09 04:41:08;;;;;;;5.28;2.42;;;1.30;99.90;;;;;;5044409;28;20121;-77
2021/04/09 04:43:34;;;;;;;5.78;2.78;;;1.50;99.90;;;;;;5017483;28;20510;-77
2021/04/09 04:46:00;;;;;;;5.63;2.38;;;1.60;99.90;;;;;;5035480;28;20084;-75
2021/04/09 04:48:25;;;;;;;5.30;3.22;;;1.60;99.90;;;;;;5039405;28;20572;-75
2021/04/09 04:50:52;;;;;;;4.10;2.13;;;1.70;99.90;;;;;;5041178;28;20619;-75
2021/04/09 04:53:18;;;;;;;6.68;2.58;;;1.60;99.90;;;;;;5013552;28;20078;-76
2021/04/09 04:55:43;;;;;;;3.92;2.40;;;1.70;99.90;;;;;;5045633;28;20080;-76
2021/04/09 04:58:09;;;;;;;4.47;2.60;;;1.70;99.90;;;;;;5031656;28;20070;-76
2021/04/09 05:00:35;;;;;;;3.00;1.90;;;1.60;99.90;;;;;;5035454;28;20090;-76
2021/04/09 05:03:00;;;;;;;2.80;2.15;;;1.70;99.90;;;;;;5022056;28;20096;-76
2021/04/09 05:05:26;;;;;;;3.13;2.50;;;1.80;99.90;;;;;;5031123;28;20086;-76
2021/04/09 05:07:51;;;;;;;3.20;2.25;;;1.80;99.90;;;;;;5033400;28;20132;-76
2021/04/09 05:10:17;;;;;;;5.22;2.92;;;1.80;99.90;;;;;;5040865;28;20070;-76
2021/04/09 05:12:42;;;;;;;4.20;2.50;;;1.80;99.90;;;;;;5014464;28;20461;-76
2021/04/09 05:15:09;;;;;;;3.38;2.45;;;1.80;99.90;;;;;;5039742;28;20165;-76
2021/04/09 05:17:35;;;;;;;4.88;2.60;;;1.80;99.90;;;;;;5025339;28;20585;-75
2021/04/09 05:20:01;;;;;;;3.65;2.55;;;1.80;99.90;;;;;;5040336;28;20774;-76
2021/04/09 05:22:27;;;;;;;4.68;3.28;;;1.80;99.90;;;;;;5043719;28;20151;-76
2021/04/09 05:24:52;;;;;;;7.82;2.67;;;1.80;99.90;;;;;;5020106;28;20074;-76
2021/04/09 05:27:18;;;;;;;4.43;2.40;;;1.80;99.90;;;;;;5030207;28;20124;-76
2021/04/09 05:29:44;;;;;;;3.40;2.47;;;1.90;99.90;;;;;;5031116;28;20097;-76
2021/04/09 05:32:13;;;;;;;4.28;2.53;;;2.00;99.90;;;;;;5036423;28;20105;-76
2021/04/09 05:34:40;;;;;;;5.82;2.20;;;2.10;99.90;;;;;;5034613;28;20108;-76
2021/04/09 05:37:06;;;;;;;6.03;2.38;;;2.20;99.90;;;;;;5023120;28;20077;-76
2021/04/09 05:39:32;;;;;;;5.72;3.38;;;2.20;99.90;;;;;;5048360;28;20078;-76
2021/04/09 05:41:58;;;;;;;2.58;1.90;;;2.30;99.90;;;;;;5034594;28;20085;-76
2021/04/09 05:44:24;;;;;;;2.78;2.20;;;2.40;99.90;;;;;;5045244;28;20073;-76
2021/04/09 05:46:49;;;;;;;5.80;2.70;;;2.50;99.90;;;;;;5031807;28;20083;-76
2021/04/09 05:49:15;;;;;;;3.60;2.65;;;2.60;99.90;;;;;;5030317;28;20159;-76
2021/04/09 05:51:40;;;;;;;3.50;2.35;;;2.70;99.90;;;;;;5033122;28;20099;-75
2021/04/09 05:54:06;;;;;;;7.13;3.00;;;2.80;99.90;;;;;;5033275;28;20081;-76
2021/04/09 05:56:32;;;;;;;2.60;2.08;;;2.90;99.90;;;;;;5040605;28;20553;-76
2021/04/09 05:58:58;;;;;;;3.80;2.58;;;3.00;99.90;;;;;;5012892;28;20536;-76
2021/04/09 06:01:23;;;;;;;4.25;2.55;;;3.00;99.90;;;;;;5031455;28;20100;-76
2021/04/09 06:03:49;;;;;;;2.85;1.95;;;3.20;99.90;;;;;;5030314;28;20495;-75
2021/04/09 06:06:15;;;;;;;4.93;2.58;;;3.20;99.90;;;;;;5031175;28;20116;-76
2021/04/09 06:08:41;;;;;;;2.22;2.00;;;3.30;99.90;;;;;;5045933;28;20106;-75
2021/04/09 06:11:07;;;;;;;5.60;2.40;;;3.30;99.90;;;;;;5029196;28;20078;-76
2021/04/09 06:13:33;;;;;;;4.82;2.45;;;3.40;99.90;;;;;;5034048;28;20081;-75
2021/04/09 06:15:59;;;;;;;3.53;2.10;;;3.50;99.90;;;;;;5031018;28;20088;-76
2021/04/09 06:18:25;;;;;;;2.90;2.08;;;3.60;99.90;;;;;;5028459;28;20143;-76
2021/04/09 06:20:51;;;;;;;3.45;1.98;;;3.60;99.90;;;;;;5030911;28;20101;-75
2021/04/09 06:23:16;;;;;;;2.80;2.22;;;3.70;99.90;;;;;;5028292;28;20276;-76
2021/04/09 06:25:42;;;;;;;3.92;2.47;;;3.70;99.90;;;;;;5031079;28;20073;-75
2021/04/09 06:28:08;;;;;;;5.25;2.08;;;3.70;99.90;;;;;;5012900;28;20598;-76
2021/04/09 06:30:34;;;;;;;5.85;2.70;;;3.90;99.90;;;;;;5011545;28;20498;-76
2021/04/09 06:32:59;;;;;;;4.70;2.53;;;4.00;99.90;;;;;;5035468;28;20139;-75
2021/04/09 06:35:25;;;;;;;6.35;2.42;;;4.00;99.90;;;;;;5041732;28;20085;-76
2021/04/09 06:37:51;;;;;;;4.88;2.53;;;4.20;99.90;;;;;;5032878;28;20077;-76
2021/04/09 06:40:17;;;;;;;5.30;2.67;;;4.30;99.90;;;;;;5028883;28;20451;-76
2021/04/09 06:42:43;;;;;;;2.53;1.98;;;4.40;99.90;;;;;;5033332;28;20181;-76
2021/04/09 06:45:09;;;;;;;2.03;1.60;;;4.50;99.90;;;;;;5032139;28;20157;-76
2021/04/09 06:47:35;;;;;;;2.85;2.35;;;4.80;99.90;;;;;;5035267;28;20089;-75
2021/04/09 06:50:02;;;;;;;5.10;1.95;;;4.90;99.90;;;;;;5041647;28;20555;-76
2021/04/09 06:52:28;;;;;;;3.38;2.15;;;5.10;99.90;;;;;;5030358;28;20094;-76
2021/04/09 06:54:54;;;;;;;2.20;2.00;;;5.20;99.90;;;;;;5034987;28;20082;-76
2021/04/09 06:57:22;;;;;;;3.70;1.80;;;5.20;99.90;;;;;;5029475;28;20082;-75
2021/04/09 06:59:49;;;;;;;3.70;2.35;;;5.40;99.90;;;;;;5033932;28;20086;-76
2021/04/09 07:02:16;;;;;;;5.85;2.55;;;5.40;99.90;;;;;;5046410;28;20082;-76
2021/04/09 07:04:43;;;;;;;4.00;1.85;;;5.60;99.90;;;;;;5042794;28;20085;-76
2021/04/09 07:07:13;;;;;;;3.45;2.00;;;5.70;99.90;;;;;;5032832;28;20074;-75
2021/04/09 07:09:40;;;;;;;5.05;2.38;;;5.80;99.90;;;;;;5035202;28;20077;-76
2021/04/09 07:12:06;;;;;;;3.78;1.73;;;5.90;99.90;;;;;;5036395;28;20104;-76
2021/04/09 07:14:52;;;;;;;3.67;2.08;;;6.00;99.40;;;;;;5021832;28;20102;-76
2021/04/09 07:17:23;;;;;;;3.78;2.10;;;6.10;99.90;;;;;;5028381;28;20605;-76
2021/04/09 07:19:48;;;;;;;4.22;2.10;;;6.30;98.80;;;;;;5032791;28;20081;-76
2021/04/09 07:22:14;;;;;;;3.03;1.70;;;6.30;99.30;;;;;;5035933;28;20100;-76
2021/04/09 07:24:39;;;;;;;4.32;1.88;;;6.40;98.40;;;;;;5037601;28;20081;-75
2021/04/09 07:27:05;;;;;;;4.93;2.05;;;6.40;97.20;;;;;;5013322;28;20101;-78
2021/04/09 07:29:31;;;;;;;4.05;2.22;;;6.50;99.60;;;;;;5027498;28;20082;-79
2021/04/09 07:32:17;;;;;;;4.75;2.03;;;6.40;99.30;;;;;;5015100;28;20143;-79
2021/04/09 07:35:21;;;;;;;3.70;1.90;;;6.70;99.20;;;;;;5001321;28;20188;-81
2021/04/09 07:37:55;;;;;;;3.33;1.73;;;6.60;98.80;;;;;;4994966;28;20105;-80
2021/04/09 07:40:23;;;;;;;2.30;1.75;;;6.70;98.10;;;;;;5037157;28;20498;-80
2021/04/09 07:42:50;;;;;;;6.65;2.13;;;6.90;97.80;;;;;;5043028;28;20098;-80
2021/04/09 07:45:18;;;;;;;3.22;2.05;;;7.00;98.40;;;;;;5034905;28;20073;-80
2021/04/09 07:48:04;;;;;;;3.25;2.10;;;7.20;96.80;;;;;;5046604;28;20081;-78
2021/04/09 07:50:49;;;;;;;2.88;1.85;;;7.30;96.20;;;;;;5042366;28;20590;-78
2021/04/09 07:53:16;;;;;;;;;;;7.40;96.20;;;;;;5055516;28;20166;-78
2021/04/09 07:55:41;;;;;;;4.45;2.08;;;7.60;96.60;;;;;;5044670;28;19985;-79
2021/04/09 07:58:24;;;;;;;3.58;1.92;;;7.70;97.20;;;;;;5023340;28;20105;-77
2021/04/09 08:00:52;;;;;;;2.35;1.63;;;8.00;95.70;;;;;;5042549;28;20089;-78
2021/04/09 08:03:38;;;;;;;3.80;1.77;;;7.90;96.00;;;;;;5032348;28;20621;-76
2021/04/09 08:06:13;;;;;;;2.53;1.60;;;8.30;94.30;;;;;;5037405;28;20092;-78
2021/04/09 08:08:47;;;;;;;2.60;1.40;;;8.30;95.20;;;;;;5037057;28;20074;-79
2021/04/09 08:11:29;;;;;;;3.13;1.70;;;8.60;92.80;;;;;;5044802;28;20143;-77
2021/04/09 08:14:09;;;;;;;3.08;1.20;;;8.70;94.00;;;;;;5032378;28;20070;-77
2021/04/09 08:16:44;;;;;;;2.88;1.40;;;8.70;93.10;;;;;;5036008;28;20069;-78
2021/04/09 08:19:14;;;;;;;4.00;1.80;;;8.90;95.10;;;;;;5042724;28;20550;-79
2021/04/09 08:21:42;;;;;;;2.58;1.52;;;9.00;92.40;;;;;;5040892;28;20101;-79
2021/04/09 08:24:10;;;;;;;3.67;2.00;;;9.10;92.40;;;;;;5040092;28;20443;-78
2021/04/09 08:26:39;;;;;;;2.80;1.23;;;9.20;93.50;;;;;;5045359;28;20127;-79
2021/04/09 08:29:11;;;;;;;2.42;1.58;;;9.50;93.90;;;;;;5051345;28;20069;-78
2021/04/09 08:31:39;;;;;;;3.33;1.92;;;9.60;93.10;;;;;;5031778;28;20074;-79
2021/04/09 08:34:07;;;;;;;3.55;1.80;;;9.80;92.70;;;;;;5036934;28;20077;-78
2021/04/09 08:36:34;;;;;;;2.10;1.13;;;9.90;87.20;;;;;;5045252;28;20579;-78
2021/04/09 08:39:01;;;;;;;3.78;1.33;;;10.00;93.50;;;;;;5039658;28;20085;-78
2021/04/09 08:41:28;;;;;;;2.45;1.33;;;10.30;91.10;;;;;;5036203;28;20086;-80
2021/04/09 08:43:54;;;;;;;3.75;1.30;;;10.30;90.40;;;;;;5047440;28;20491;-78
2021/04/09 08:46:20;;;;;;;1.30;1.05;;;10.30;91.20;;;;;;5030611;28;20069;-76
2021/04/09 08:48:48;;;;;;;4.15;1.58;;;10.30;86.00;;;;;;5037474;28;20089;-77
2021/04/09 08:51:15;;;;;;;2.60;1.55;;;10.20;90.40;;;;;;5041871;28;20197;-77
2021/04/09 08:53:40;;;;;;;2.45;1.48;;;10.40;91.80;;;;;;5040166;28;20077;-79
2021/04/09 08:56:06;;;;;;;8.57;1.55;;;10.40;90.60;;;;;;5041710;28;20089;-78
2021/04/09 08:58:47;;;;;;;3.75;1.08;;;10.50;90.40;;;;;;5050142;28;20555;-77
2021/04/09 09:01:14;;;;;;;3.95;1.10;;;10.60;82.50;;;;;;5047368;28;20581;-78
2021/04/09 09:03:40;;;;;;;1.60;1.10;;;10.70;76.70;;;;;;5051541;28;20085;-78
2021/04/09 09:06:07;;;;;;;2.42;1.02;;;10.70;81.50;;;;;;5046175;28;20096;-77
2021/04/09 09:08:48;;;;;;;2.88;1.20;;;10.90;77.50;;;;;;5033270;28;20169;-78
2021/04/09 09:11:34;;;;;;;3.78;1.20;;;11.00;79.40;;;;;;5025354;28;20090;-80
2021/04/09 09:14:00;;;;;;;2.45;1.20;;;11.10;73.30;;;;;;5032528;28;20089;-78
2021/04/09 09:16:35;;;;;;;3.20;1.58;;;10.90;76.10;;;;;;5046999;28;20080;-78
2021/04/09 09:19:01;;;;;;;3.50;1.65;;;11.10;78.20;;;;;;5024831;28;20073;-77
2021/04/09 09:21:32;;;;;;;6.38;1.33;;;11.20;79.60;;;;;;5039625;28;20752;-80
2021/04/09 09:23:58;;;;;;;2.03;1.25;;;11.10;65.00;;;;;;5043629;28;20540;-77
2021/04/09 09:26:31;;;;;;;1.90;1.23;;;10.80;67.90;;;;;;5028740;28;20088;-80
2021/04/09 09:29:21;;;;;;;2.92;1.20;;;11.30;76.60;;;;;;5049286;28;20081;-78
2021/04/09 09:31:46;;;;;;;3.45;1.85;;;11.50;73.40;;;;;;5046290;28;20117;-77
2021/04/09 09:34:20;;;;;;;2.08;1.30;;;11.50;68.20;;;;;;5068129;28;20498;-77
2021/04/09 09:37:08;;;;;;;4.82;1.13;;;11.40;69.40;;;;;;5030833;28;20084;-77
2021/04/09 09:40:10;;;;;;;1.33;1.20;;;11.50;65.40;;;;;;5036564;28;20082;-77
2021/04/09 09:42:36;;;;;;;1.27;0.88;;;11.50;57.40;;;;;;4990730;28;20728;-76
2021/04/09 09:45:05;;;;;;;1.50;1.10;;;11.40;58.70;;;;;;5032282;28;20089;-77
2021/04/09 09:47:32;;;;;;;2.33;1.10;;;11.40;60.50;;;;;;5043115;28;20537;-77
2021/04/09 09:50:04;;;;;;;2.33;1.15;;;11.60;63.60;;;;;;5031963;28;20081;-77
2021/04/09 09:52:56;;;;;;;1.80;1.02;;;11.70;58.80;;;;;;5013922;28;20090;-78
2021/04/09 09:55:40;;;;;;;3.58;1.60;;;11.70;63.30;;;;;;5043999;28;20091;-76
2021/04/09 09:58:23;;;;;;;1.90;1.08;;;12.00;70.10;;;;;;5039462;28;20089;-77
2021/04/09 10:01:00;;;;;;;2.72;1.20;;;12.10;69.80;;;;;;5020100;28;20599;-76
2021/04/09 10:03:29;;;;;;;4.03;1.35;;;12.20;75.50;;;;;;5024968;28;20105;-77
2021/04/09 10:05:57;;;;;;;2.92;0.98;;;12.50;62.30;;;;;;5038887;28;20076;-78
2021/04/09 10:08:24;;;;;;;1.60;1.13;;;12.60;65.90;;;;;;5040748;28;20116;-77
2021/04/09 10:11:02;;;;;;;5.05;1.42;;;12.30;65.20;;;;;;5044053;28;20093;-79
2021/04/09 10:13:42;;;;;;;2.50;1.30;;;12.30;63.70;;;;;;5047435;28;20086;-78
2021/04/09 10:16:10;;;;;;;2.35;1.27;;;12.20;64.00;;;;;;5045511;28;20073;-78
2021/04/09 10:18:36;;;;;;;1.90;0.88;;;12.40;58.70;;;;;;5044115;28;20069;-78
2021/04/09 10:21:25;;;;;;;3.33;1.30;;;12.40;64.60;;;;;;5042015;28;20097;-78
2021/04/09 10:24:09;;;;;;;3.33;1.23;;;12.70;62.80;;;;;;5024588;28;20090;-77
2021/04/09 10:26:36;;;;;;;2.95;1.30;;;12.70;65.60;;;;;;5039093;28;20583;-78
2021/04/09 10:29:02;;;;;;;2.90;1.60;;;13.00;66.80;;;;;;5040584;28;20462;-81
2021/04/09 10:31:27;;;;;;;2.10;1.33;;;13.10;65.00;;;;;;5047486;28;20077;-79
2021/04/09 10:33:56;;;;;;;2.47;1.30;;;13.10;66.00;;;;;;5039376;28;20582;-82
2021/04/09 10:36:29;;;;;;;1.98;1.13;;;13.00;57.10;;;;;;5032567;28;20713;-79
2021/04/09 10:38:59;;;;;;;3.42;1.13;;;12.80;58.50;;;;;;5033209;28;20069;-77
2021/04/09 10:41:40;;;;;;;3.15;1.42;;;12.70;60.80;;;;;;5039017;28;20097;-78
2021/04/09 10:44:18;;;;;;;3.33;1.40;;;13.00;55.70;;;;;;5033927;28;20168;-78
2021/04/09 10:46:52;;;;;;;2.22;1.33;;;13.00;60.60;;;;;;5019130;28;20554;-80
2021/04/09 10:49:20;;;;;;;1.80;1.10;;;13.10;59.10;;;;;;5032478;28;20168;-76
2021/04/09 10:51:47;;;;;;;2.28;1.10;;;13.00;59.80;;;;;;5028082;28;20563;-75
2021/04/09 10:54:25;;;;;;;4.57;1.30;;;13.10;61.00;;;;;;5040272;28;20506;-77
2021/04/09 10:57:00;;;;;;;4.78;1.50;;;13.00;57.00;;;;;;5026679;28;20093;-77
2021/04/09 10:59:30;;;;;;;1.50;1.20;;;13.40;57.10;;;;;;5035854;28;20076;-77
2021/04/09 11:01:57;;;;;;;2.17;1.75;;;13.50;59.90;;;;;;5039425;28;20098;-76
2021/04/09 11:04:23;;;;;;;1.40;1.15;;;13.70;60.00;;;;;;5020617;28;20077;-76
2021/04/09 11:06:55;;;;;;;2.00;1.42;;;13.80;62.70;;;;;;5024468;28;20078;-76
2021/04/09 11:09:21;;;;;;;3.58;1.83;;;13.50;56.00;;;;;;5039904;28;20172;-79
2021/04/09 11:11:47;;;;;;;4.80;2.00;;;13.80;60.90;;;;;;5032429;28;20094;-77
2021/04/09 11:14:18;;;;;;;1.90;1.20;;;13.90;62.80;;;;;;5050144;28;20455;-78
2021/04/09 11:16:53;;;;;;;4.25;1.40;;;14.10;58.00;;;;;;5047395;28;20073;-74
2021/04/09 11:19:24;;;;;;;;;;;14.20;57.40;;;;;;5043195;28;20077;-75
2021/04/09 11:21:52;;;;;;;3.53;1.40;;;14.10;56.30;;;;;;5049841;28;20031;-76
2021/04/09 11:24:30;;;;;;;3.33;1.75;;;13.90;57.20;;;;;;5050252;28;20073;-77
2021/04/09 11:26:57;;;;;;;4.38;1.75;;;13.80;57.10;;;;;;5037331;28;20085;-76
2021/04/09 11:29:29;;;;;;;4.10;1.10;;;13.60;56.00;;;;;;5041220;28;20443;-75
2021/04/09 11:32:19;;;;;;;5.53;2.60;;;13.60;54.60;;;;;;5044418;28;20610;-75
2021/04/09 11:34:47;;;;;;;3.20;1.80;;;13.60;52.80;;;;;;5044723;28;20077;-75
2021/04/09 11:37:14;;;;;;;2.33;1.40;;;13.60;55.50;;;;;;5043838;28;20539;-74
2021/04/09 11:39:55;;;;;;;4.05;1.88;;;13.40;53.30;;;;;;5039557;28;20074;-74
2021/04/09 11:42:31;;;;;;;6.55;1.45;;;13.60;53.80;;;;;;5023358;28;20088;-75
2021/04/09 11:44:59;;;;;;;2.05;1.15;;;13.60;53.60;;;;;;5040928;28;20085;-75
2021/04/09 11:47:28;;;;;;;3.53;1.75;;;13.70;55.00;;;;;;5042560;28;20424;-73
2021/04/09 11:50:18;;;;;;;2.50;1.13;;;13.70;57.60;;;;;;5040714;28;20073;-75
2021/04/09 11:53:05;;;;;;;2.90;1.02;;;13.70;54.50;;;;;;5024565;28;20086;-77
2021/04/09 11:55:40;;;;;;;5.05;1.27;;;13.60;55.20;;;;;;5040029;28;20108;-75
2021/04/09 11:58:23;;;;;;;1.50;0.82;;;13.70;53.50;;;;;;5044212;28;20065;-75
2021/04/09 12:01:00;;;;;;;1.90;0.85;;;13.60;51.60;;;;;;5043858;28;20094;-75
2021/04/09 12:03:43;;;;;;;4.82;1.35;;;13.60;53.40;;;;;;5038694;28;20077;-76
2021/04/09 12:06:13;;;;;;;1.48;0.88;;;13.70;55.10;;;;;;5034415;28;20077;-76
2021/04/09 12:08:39;;;;;;;1.58;1.05;;;13.70;53.30;;;;;;5038269;28;20112;-74
2021/04/09 12:11:07;;;;;;;3.85;1.38;;;13.60;52.30;;;;;;5031677;28;20100;-75
2021/04/09 12:13:35;;;;;;;2.20;1.23;;;13.60;53.10;;;;;;5033274;28;20089;-76
2021/04/09 12:16:00;;;;;;;3.10;1.15;;;13.70;51.40;;;;;;5019152;28;20078;-75
2021/04/09 12:18:26;;;;;;;1.50;1.13;;;13.80;50.60;;;;;;5044307;28;20081;-77
2021/04/09 12:20:51;;;;;;;2.22;1.23;;;13.80;56.00;;;;;;5041824;28;20119;-76
2021/04/09 12:23:17;;;;;;;6.85;1.33;;;14.10;53.00;;;;;;5045493;28;20079;-74
2021/04/09 12:25:42;;;;;;;2.08;1.00;;;14.20;50.50;;;;;;5035703;28;20642;-73
2021/04/09 12:28:10;;;;;;;1.60;1.15;;;14.60;55.60;;;;;;5036807;28;20089;-74
2021/04/09 12:30:35;;;;;;;2.97;0.95;;;14.80;49.60;;;;;;5038104;28;20533;-75
2021/04/09 12:33:01;;;;;;;1.80;1.15;;;14.80;47.80;;;;;;5031117;28;20172;-75
2021/04/09 12:35:26;;;;;;;1.70;1.00;;;14.60;46.20;;;;;;5029822;28;20544;-74
2021/04/09 12:37:52;;;;;;;1.88;1.30;;;14.80;49.70;;;;;;5032326;28;20066;-75
2021/04/09 12:40:18;;;;;;;1.95;1.27;;;14.60;46.80;;;;;;5031255;28;20076;-75
2021/04/09 12:42:43;;;;;;;2.22;1.13;;;14.50;50.20;;;;;;5030705;28;20447;-74
2021/04/09 12:45:09;;;;;;;2.83;1.25;;;14.50;47.60;;;;;;5046242;28;20074;-74
2021/04/09 12:47:35;;;;;;;4.22;1.00;;;14.50;47.70;;;;;;5040431;28;20485;-74
2021/04/09 12:50:00;;;;;;;2.38;1.02;;;14.70;50.80;;;;;;5041669;28;20671;-75
2021/04/09 12:52:26;;;;;;;2.17;1.05;;;15.00;48.60;;;;;;5047063;28;20097;-75
2021/04/09 12:54:52;;;;;;;2.88;1.05;;;15.30;56.10;;;;;;5029893;28;20157;-75
2021/04/09 12:57:17;;;;;;;3.33;1.73;;;15.50;51.00;;;;;;5034957;28;20077;-74
2021/04/09 12:59:43;;;;;;;1.23;1.00;;;15.40;42.50;;;;;;5041054;28;20077;-75
2021/04/09 13:02:09;;;;;;;2.72;1.30;;;15.20;47.10;;;;;;5037908;28;20092;-74
2021/04/09 13:04:35;;;;;;;4.25;1.30;;;15.00;45.20;;;;;;5036610;28;20111;-75